sensor_id;sensor_type;location;lat;lon;timestamp;temperature;humidity
17252;DHT22;8742;51.716;8.790;2023-08-06T00:01:39;14.70;99.90
17252;DHT22;8742;51.716;8.790;2023-08-06T00:04:06;14.80;99.90
17252;DHT22;8742;51.716;8.790;2023-08-06T00:06:33;14.80;99.90
17252;DHT22;8742;51.716;8.790;2023-08-06T00:09:00;14.70;99.90
17252;DHT22;8742;51.716;8.790;2023-08-06T00:11:28;14.80;99.90
17252;DHT22;8742;51.716;8.790;2023-08-06T00:13:57;14.80;99.90
17252;DHT22;8742;51.716;8.790;2023-08-06T00:16:24;14.80;99.90
17252;DHT22;8742;51.716;8.790;2023-08-06T00:18:51;14.80;99.90
17252;DHT22;8742;51.716;8.790;2023-08-06T00:21:18;14.80;99.90
17252;DHT22;8742;51.716;8.790;2023-08-06T00:23:44;14.80;99.90
17252;DHT22;8742;51.716;8.790;2023-08-06T00:26:11;14.80;99.90
17252;DHT22;8742;51.716;8.790;2023-08-06T00:28:39;14.80;99.90
17252;DHT22;8742;51.716;8.790;2023-08-06T00:31:06;14.80;99.90
17252;DHT22;8742;51.716;8.790;2023-08-06T00:33:33;14.80;99.90
17252;DHT22;8742;51.716;8.790;2023-08-06T00:36:00;14.80;99.90
17252;DHT22;8742;51.716;8.790;2023-08-06T00:38:26;14.80;99.90
17252;DHT22;8742;51.716;8.790;2023-08-06T00:40:53;14.80;99.90
17252;DHT22;8742;51.716;8.790;2023-08-06T00:43:20;14.80;99.90
17252;DHT22;8742;51.716;8.790;2023-08-06T00:45:48;14.80;99.90
17252;DHT22;8742;51.716;8.790;2023-08-06T00:48:15;14.80;99.90
17252;DHT22;8742;51.716;8.790;2023-08-06T00:50:43;14.80;99.90
17252;DHT22;8742;51.716;8.790;2023-08-06T00:53:10;14.80;99.90
17252;DHT22;8742;51.716;8.790;2023-08-06T00:55:36;14.80;99.90
17252;DHT22;8742;51.716;8.790;2023-08-06T00:58:04;14.90;99.90
17252;DHT22;8742;51.716;8.790;2023-08-06T01:00:31;14.80;99.90
17252;DHT22;8742;51.716;8.790;2023-08-06T01:02:59;14.80;99.90
17252;DHT22;8742;51.716;8.790;2023-08-06T01:05:26;14.80;99.90
17252;DHT22;8742;51.716;8.790;2023-08-06T01:08:07;14.80;99.90
17252;DHT22;8742;51.716;8.790;2023-08-06T01:10:44;14.80;99.90
17252;DHT22;8742;51.716;8.790;2023-08-06T01:13:20;14.80;99.90
17252;DHT22;8742;51.716;8.790;2023-08-06T01:15:53;14.80;99.90
17252;DHT22;8742;51.716;8.790;2023-08-06T01:18:25;14.80;99.90
17252;DHT22;8742;51.716;8.790;2023-08-06T01:20:53;14.70;99.90
17252;DHT22;8742;51.716;8.790;2023-08-06T01:23:20;14.80;99.90
17252;DHT22;8742;51.716;8.790;2023-08-06T01:25:53;14.70;99.90
17252;DHT22;8742;51.716;8.790;2023-08-06T01:28:27;14.70;99.90
17252;DHT22;8742;51.716;8.790;2023-08-06T01:31:00;14.70;99.90
17252;DHT22;8742;51.716;8.790;2023-08-06T01:33:32;14.70;99.90
17252;DHT22;8742;51.716;8.790;2023-08-06T01:36:01;14.70;99.90
17252;DHT22;8742;51.716;8.790;2023-08-06T01:38:29;14.70;99.90
17252;DHT22;8742;51.716;8.790;2023-08-06T01:40:56;14.70;99.90
17252;DHT22;8742;51.716;8.790;2023-08-06T01:43:22;14.70;99.90
17252;DHT22;8742;51.716;8.790;2023-08-06T01:45:49;14.60;99.90
17252;DHT22;8742;51.716;8.790;2023-08-06T01:48:16;14.60;99.90
17252;DHT22;8742;51.716;8.790;2023-08-06T01:50:43;14.60;99.90
17252;DHT22;8742;51.716;8.790;2023-08-06T01:53:11;14.60;99.90
17252;DHT22;8742;51.716;8.790;2023-08-06T01:55:38;14.50;99.90
17252;DHT22;8742;51.716;8.790;2023-08-06T01:58:04;14.50;99.90
17252;DHT22;8742;51.716;8.790;2023-08-06T02:00:31;14.50;99.90
17252;DHT22;8742;51.716;8.790;2023-08-06T02:02:58;14.50;99.90
17252;DHT22;8742;51.716;8.790;2023-08-06T02:05:25;14.40;99.90
17252;DHT22;8742;51.716;8.790;2023-08-06T02:07:51;14.40;99.90
17252;DHT22;8742;51.716;8.790;2023-08-06T02:10:20;14.40;99.90
17252;DHT22;8742;51.716;8.790;2023-08-06T02:12:46;14.40;99.90
17252;DHT22;8742;51.716;8.790;2023-08-06T02:15:13;14.40;99.90
17252;DHT22;8742;51.716;8.790;2023-08-06T02:17:40;14.50;99.90
17252;DHT22;8742;51.716;8.790;2023-08-06T02:20:08;14.50;99.90
17252;DHT22;8742;51.716;8.790;2023-08-06T02:22:35;14.50;99.90
17252;DHT22;8742;51.716;8.790;2023-08-06T02:25:01;14.50;99.90
17252;DHT22;8742;51.716;8.790;2023-08-06T02:27:30;14.50;99.90
17252;DHT22;8742;51.716;8.790;2023-08-06T02:29:56;14.40;99.90
17252;DHT22;8742;51.716;8.790;2023-08-06T02:32:24;14.50;99.90
17252;DHT22;8742;51.716;8.790;2023-08-06T02:34:51;14.40;99.90
17252;DHT22;8742;51.716;8.790;2023-08-06T02:37:18;14.40;99.90
17252;DHT22;8742;51.716;8.790;2023-08-06T02:39:45;14.40;99.90
17252;DHT22;8742;51.716;8.790;2023-08-06T02:42:12;14.40;99.90
17252;DHT22;8742;51.716;8.790;2023-08-06T02:44:40;14.30;99.90
17252;DHT22;8742;51.716;8.790;2023-08-06T02:47:07;14.30;99.90
17252;DHT22;8742;51.716;8.790;2023-08-06T02:49:34;14.30;99.90
17252;DHT22;8742;51.716;8.790;2023-08-06T02:52:00;14.30;99.90
17252;DHT22;8742;51.716;8.790;2023-08-06T02:54:27;14.20;99.90
17252;DHT22;8742;51.716;8.790;2023-08-06T02:56:54;14.20;99.90
17252;DHT22;8742;51.716;8.790;2023-08-06T02:59:21;14.20;99.90
17252;DHT22;8742;51.716;8.790;2023-08-06T03:01:51;14.10;99.90
17252;DHT22;8742;51.716;8.790;2023-08-06T03:04:18;14.10;99.90
17252;DHT22;8742;51.716;8.790;2023-08-06T03:06:45;14.00;99.90
17252;DHT22;8742;51.716;8.790;2023-08-06T03:09:12;14.00;99.90
17252;DHT22;8742;51.716;8.790;2023-08-06T03:11:38;13.90;99.90
17252;DHT22;8742;51.716;8.790;2023-08-06T03:14:05;13.90;99.90
17252;DHT22;8742;51.716;8.790;2023-08-06T03:16:32;13.90;99.90
17252;DHT22;8742;51.716;8.790;2023-08-06T03:19:00;13.90;99.90
17252;DHT22;8742;51.716;8.790;2023-08-06T03:21:29;13.80;99.90
17252;DHT22;8742;51.716;8.790;2023-08-06T03:23:56;13.80;99.90
17252;DHT22;8742;51.716;8.790;2023-08-06T03:26:23;13.80;99.90
17252;DHT22;8742;51.716;8.790;2023-08-06T03:28:50;13.80;99.90
17252;DHT22;8742;51.716;8.790;2023-08-06T03:31:16;13.70;99.90
17252;DHT22;8742;51.716;8.790;2023-08-06T03:33:43;13.70;99.90
17252;DHT22;8742;51.716;8.790;2023-08-06T03:36:11;13.70;99.90
17252;DHT22;8742;51.716;8.790;2023-08-06T03:38:38;13.70;99.90
17252;DHT22;8742;51.716;8.790;2023-08-06T03:41:05;13.70;99.90
17252;DHT22;8742;51.716;8.790;2023-08-06T03:43:32;13.70;99.90
17252;DHT22;8742;51.716;8.790;2023-08-06T03:45:58;13.60;99.90
17252;DHT22;8742;51.716;8.790;2023-08-06T03:48:26;13.60;99.90
17252;DHT22;8742;51.716;8.790;2023-08-06T03:50:52;13.60;99.90
17252;DHT22;8742;51.716;8.790;2023-08-06T03:53:21;13.60;99.90
17252;DHT22;8742;51.716;8.790;2023-08-06T03:55:48;13.60;99.90
17252;DHT22;8742;51.716;8.790;2023-08-06T03:58:14;13.60;99.90
17252;DHT22;8742;51.716;8.790;2023-08-06T04:00:41;13.60;99.90
17252;DHT22;8742;51.716;8.790;2023-08-06T04:03:08;13.60;99.90
17252;DHT22;8742;51.716;8.790;2023-08-06T04:05:35;13.60;99.90
17252;DHT22;8742;51.716;8.790;2023-08-06T04:08:02;13.70;99.90
17252;DHT22;8742;51.716;8.790;2023-08-06T04:10:30;13.70;99.90
17252;DHT22;8742;51.716;8.790;2023-08-06T04:12:57;13.70;99.90
17252;DHT22;8742;51.716;8.790;2023-08-06T04:15:23;13.70;99.90
17252;DHT22;8742;51.716;8.790;2023-08-06T04:17:50;13.70;99.90
17252;DHT22;8742;51.716;8.790;2023-08-06T04:20:17;13.70;99.90
17252;DHT22;8742;51.716;8.790;2023-08-06T04:22:44;13.70;99.90
17252;DHT22;8742;51.716;8.790;2023-08-06T04:25:11;13.70;99.90
17252;DHT22;8742;51.716;8.790;2023-08-06T04:27:39;13.80;99.90
17252;DHT22;8742;51.716;8.790;2023-08-06T04:30:07;13.80;99.90
17252;DHT22;8742;51.716;8.790;2023-08-06T04:32:34;13.80;99.90
17252;DHT22;8742;51.716;8.790;2023-08-06T04:35:01;13.90;99.90
17252;DHT22;8742;51.716;8.790;2023-08-06T04:37:28;13.90;99.90
17252;DHT22;8742;51.716;8.790;2023-08-06T04:39:55;14.00;99.90
17252;DHT22;8742;51.716;8.790;2023-08-06T04:42:22;14.00;99.90
17252;DHT22;8742;51.716;8.790;2023-08-06T04:44:50;14.10;99.90
17252;DHT22;8742;51.716;8.790;2023-08-06T04:47:17;14.10;99.90
17252;DHT22;8742;51.716;8.790;2023-08-06T04:49:44;14.20;99.90
17252;DHT22;8742;51.716;8.790;2023-08-06T04:52:11;14.30;99.90
17252;DHT22;8742;51.716;8.790;2023-08-06T04:54:37;14.40;99.90
17252;DHT22;8742;51.716;8.790;2023-08-06T04:57:05;14.50;99.90
17252;DHT22;8742;51.716;8.790;2023-08-06T04:59:31;14.60;99.90
17252;DHT22;8742;51.716;8.790;2023-08-06T05:02:00;14.70;99.90
17252;DHT22;8742;51.716;8.790;2023-08-06T05:04:27;14.70;99.90
17252;DHT22;8742;51.716;8.790;2023-08-06T05:06:54;14.80;99.90
17252;DHT22;8742;51.716;8.790;2023-08-06T05:09:20;14.80;99.90
17252;DHT22;8742;51.716;8.790;2023-08-06T05:11:48;14.90;99.90
17252;DHT22;8742;51.716;8.790;2023-08-06T05:14:15;15.00;99.90
17252;DHT22;8742;51.716;8.790;2023-08-06T05:16:42;15.10;99.90
17252;DHT22;8742;51.716;8.790;2023-08-06T05:19:10;15.10;99.90
17252;DHT22;8742;51.716;8.790;2023-08-06T05:21:37;15.20;99.90
17252;DHT22;8742;51.716;8.790;2023-08-06T05:24:04;15.30;99.90
17252;DHT22;8742;51.716;8.790;2023-08-06T05:26:31;15.40;99.90
17252;DHT22;8742;51.716;8.790;2023-08-06T05:28:57;15.50;99.90
17252;DHT22;8742;51.716;8.790;2023-08-06T05:31:24;15.50;99.90
17252;DHT22;8742;51.716;8.790;2023-08-06T05:33:51;15.60;99.90
17252;DHT22;8742;51.716;8.790;2023-08-06T05:36:19;15.60;99.90
17252;DHT22;8742;51.716;8.790;2023-08-06T05:38:47;15.70;99.90
17252;DHT22;8742;51.716;8.790;2023-08-06T05:41:13;15.70;99.90
17252;DHT22;8742;51.716;8.790;2023-08-06T05:43:40;15.80;99.90
17252;DHT22;8742;51.716;8.790;2023-08-06T05:46:07;15.80;99.90
17252;DHT22;8742;51.716;8.790;2023-08-06T05:48:34;15.80;99.90
17252;DHT22;8742;51.716;8.790;2023-08-06T05:51:01;15.90;99.90
17252;DHT22;8742;51.716;8.790;2023-08-06T05:53:29;15.90;99.90
17252;DHT22;8742;51.716;8.790;2023-08-06T05:55:56;15.90;99.90
17252;DHT22;8742;51.716;8.790;2023-08-06T05:58:23;15.90;99.90
17252;DHT22;8742;51.716;8.790;2023-08-06T06:00:54;15.90;99.90
17252;DHT22;8742;51.716;8.790;2023-08-06T06:03:21;16.00;99.90
17252;DHT22;8742;51.716;8.790;2023-08-06T06:05:48;16.00;99.90
17252;DHT22;8742;51.716;8.790;2023-08-06T06:08:17;16.00;99.90
17252;DHT22;8742;51.716;8.790;2023-08-06T06:10:45;16.00;99.90
17252;DHT22;8742;51.716;8.790;2023-08-06T06:13:12;16.00;99.90
17252;DHT22;8742;51.716;8.790;2023-08-06T06:15:39;16.00;99.90
17252;DHT22;8742;51.716;8.790;2023-08-06T06:18:05;16.00;99.90
17252;DHT22;8742;51.716;8.790;2023-08-06T06:20:32;16.10;99.90
17252;DHT22;8742;51.716;8.790;2023-08-06T06:22:59;16.10;99.90
17252;DHT22;8742;51.716;8.790;2023-08-06T06:25:26;16.10;99.90
17252;DHT22;8742;51.716;8.790;2023-08-06T06:27:54;16.20;99.90
17252;DHT22;8742;51.716;8.790;2023-08-06T06:30:21;16.20;99.90
17252;DHT22;8742;51.716;8.790;2023-08-06T06:32:48;16.30;99.90
17252;DHT22;8742;51.716;8.790;2023-08-06T06:35:15;16.30;99.90
17252;DHT22;8742;51.716;8.790;2023-08-06T06:37:42;16.40;99.90
17252;DHT22;8742;51.716;8.790;2023-08-06T06:40:09;16.50;99.90
17252;DHT22;8742;51.716;8.790;2023-08-06T06:42:36;16.70;99.90
17252;DHT22;8742;51.716;8.790;2023-08-06T06:45:05;16.80;99.90
17252;DHT22;8742;51.716;8.790;2023-08-06T06:47:32;17.00;99.90
17252;DHT22;8742;51.716;8.790;2023-08-06T06:49:59;17.20;99.90
17252;DHT22;8742;51.716;8.790;2023-08-06T06:52:26;17.30;99.90
17252;DHT22;8742;51.716;8.790;2023-08-06T06:54:53;17.40;99.90
17252;DHT22;8742;51.716;8.790;2023-08-06T06:57:22;17.50;99.90
17252;DHT22;8742;51.716;8.790;2023-08-06T06:59:49;17.60;99.90
17252;DHT22;8742;51.716;8.790;2023-08-06T07:02:18;17.80;99.90
17252;DHT22;8742;51.716;8.790;2023-08-06T07:04:44;17.90;99.90
17252;DHT22;8742;51.716;8.790;2023-08-06T07:07:11;18.10;99.90
17252;DHT22;8742;51.716;8.790;2023-08-06T07:09:38;18.30;99.90
17252;DHT22;8742;51.716;8.790;2023-08-06T07:12:05;18.50;99.90
17252;DHT22;8742;51.716;8.790;2023-08-06T07:14:32;18.60;99.90
17252;DHT22;8742;51.716;8.790;2023-08-06T07:16:59;18.70;99.90
17252;DHT22;8742;51.716;8.790;2023-08-06T07:19:27;18.80;99.90
17252;DHT22;8742;51.716;8.790;2023-08-06T07:21:54;18.90;99.90
17252;DHT22;8742;51.716;8.790;2023-08-06T07:24:22;19.00;99.90
17252;DHT22;8742;51.716;8.790;2023-08-06T07:26:49;19.00;99.90
17252;DHT22;8742;51.716;8.790;2023-08-06T07:29:16;19.00;99.90
17252;DHT22;8742;51.716;8.790;2023-08-06T07:31:46;19.00;99.90
17252;DHT22;8742;51.716;8.790;2023-08-06T07:34:13;19.10;99.90
17252;DHT22;8742;51.716;8.790;2023-08-06T07:36:43;19.20;99.90
17252;DHT22;8742;51.716;8.790;2023-08-06T07:39:10;19.30;99.90
17252;DHT22;8742;51.716;8.790;2023-08-06T07:41:37;19.40;99.90
17252;DHT22;8742;51.716;8.790;2023-08-06T07:44:04;19.50;99.90
17252;DHT22;8742;51.716;8.790;2023-08-06T07:46:31;19.60;99.90
17252;DHT22;8742;51.716;8.790;2023-08-06T07:49:02;19.70;99.90
17252;DHT22;8742;51.716;8.790;2023-08-06T07:51:29;19.80;99.90
17252;DHT22;8742;51.716;8.790;2023-08-06T07:53:57;19.90;99.90
17252;DHT22;8742;51.716;8.790;2023-08-06T07:56:24;20.00;99.90
17252;DHT22;8742;51.716;8.790;2023-08-06T07:58:51;20.20;99.90
17252;DHT22;8742;51.716;8.790;2023-08-06T08:01:18;20.20;99.90
17252;DHT22;8742;51.716;8.790;2023-08-06T08:03:44;20.40;99.90
17252;DHT22;8742;51.716;8.790;2023-08-06T08:06:11;20.40;99.90
17252;DHT22;8742;51.716;8.790;2023-08-06T08:08:38;20.50;99.90
17252;DHT22;8742;51.716;8.790;2023-08-06T08:11:07;20.70;99.90
17252;DHT22;8742;51.716;8.790;2023-08-06T08:13:34;21.40;99.90
17252;DHT22;8742;51.716;8.790;2023-08-06T08:16:01;22.40;99.90
17252;DHT22;8742;51.716;8.790;2023-08-06T08:18:28;23.00;99.90
17252;DHT22;8742;51.716;8.790;2023-08-06T08:20:57;22.90;99.90
17252;DHT22;8742;51.716;8.790;2023-08-06T08:23:23;22.80;99.90
17252;DHT22;8742;51.716;8.790;2023-08-06T08:25:50;22.60;99.90
17252;DHT22;8742;51.716;8.790;2023-08-06T08:28:19;22.50;99.90
17252;DHT22;8742;51.716;8.790;2023-08-06T08:30:46;22.40;99.90
17252;DHT22;8742;51.716;8.790;2023-08-06T08:33:13;22.30;99.90
17252;DHT22;8742;51.716;8.790;2023-08-06T08:35:40;22.30;99.90
17252;DHT22;8742;51.716;8.790;2023-08-06T08:38:07;22.20;99.90
17252;DHT22;8742;51.716;8.790;2023-08-06T08:40:37;22.20;99.90
17252;DHT22;8742;51.716;8.790;2023-08-06T08:43:08;22.20;99.90
17252;DHT22;8742;51.716;8.790;2023-08-06T08:45:39;22.40;99.90
17252;DHT22;8742;51.716;8.790;2023-08-06T08:48:06;22.40;99.90
17252;DHT22;8742;51.716;8.790;2023-08-06T08:50:34;22.40;99.90
17252;DHT22;8742;51.716;8.790;2023-08-06T08:53:01;22.90;99.90
17252;DHT22;8742;51.716;8.790;2023-08-06T08:55:27;23.80;99.90
17252;DHT22;8742;51.716;8.790;2023-08-06T08:57:54;24.40;99.90
17252;DHT22;8742;51.716;8.790;2023-08-06T09:00:21;25.00;99.90
17252;DHT22;8742;51.716;8.790;2023-08-06T09:02:49;25.60;99.90
17252;DHT22;8742;51.716;8.790;2023-08-06T09:05:19;25.70;99.90
17252;DHT22;8742;51.716;8.790;2023-08-06T09:07:48;26.00;99.90
17252;DHT22;8742;51.716;8.790;2023-08-06T09:10:16;25.70;99.90
17252;DHT22;8742;51.716;8.790;2023-08-06T09:12:45;25.30;99.90
17252;DHT22;8742;51.716;8.790;2023-08-06T09:15:11;24.80;99.90
17252;DHT22;8742;51.716;8.790;2023-08-06T09:17:38;24.50;99.90
17252;DHT22;8742;51.716;8.790;2023-08-06T09:20:12;24.20;99.90
17252;DHT22;8742;51.716;8.790;2023-08-06T09:22:39;24.30;99.90
17252;DHT22;8742;51.716;8.790;2023-08-06T09:25:07;24.90;99.90
17252;DHT22;8742;51.716;8.790;2023-08-06T09:27:38;25.60;99.90
17252;DHT22;8742;51.716;8.790;2023-08-06T09:30:06;25.70;99.90
17252;DHT22;8742;51.716;8.790;2023-08-06T09:32:45;25.50;99.90
17252;DHT22;8742;51.716;8.790;2023-08-06T09:35:17;25.30;99.90
17252;DHT22;8742;51.716;8.790;2023-08-06T09:37:44;25.10;99.90
17252;DHT22;8742;51.716;8.790;2023-08-06T09:40:28;24.90;99.90
17252;DHT22;8742;51.716;8.790;2023-08-06T09:42:55;24.80;99.90
17252;DHT22;8742;51.716;8.790;2023-08-06T09:45:22;24.80;99.90
17252;DHT22;8742;51.716;8.790;2023-08-06T09:47:49;24.70;99.90
17252;DHT22;8742;51.716;8.790;2023-08-06T09:50:18;24.70;99.90
17252;DHT22;8742;51.716;8.790;2023-08-06T09:52:46;24.60;99.90
17252;DHT22;8742;51.716;8.790;2023-08-06T09:55:14;24.50;99.90
17252;DHT22;8742;51.716;8.790;2023-08-06T09:57:44;24.40;99.90
17252;DHT22;8742;51.716;8.790;2023-08-06T10:00:11;24.30;99.90
17252;DHT22;8742;51.716;8.790;2023-08-06T10:02:39;24.10;99.90
17252;DHT22;8742;51.716;8.790;2023-08-06T10:05:07;24.00;99.90
17252;DHT22;8742;51.716;8.790;2023-08-06T10:07:38;23.90;99.90
17252;DHT22;8742;51.716;8.790;2023-08-06T10:10:06;23.80;99.90
17252;DHT22;8742;51.716;8.790;2023-08-06T10:12:36;23.70;99.90
17252;DHT22;8742;51.716;8.790;2023-08-06T10:15:08;23.50;99.90
17252;DHT22;8742;51.716;8.790;2023-08-06T10:17:36;23.30;99.90
17252;DHT22;8742;51.716;8.790;2023-08-06T10:20:05;23.10;99.90
17252;DHT22;8742;51.716;8.790;2023-08-06T10:22:33;23.00;99.90
17252;DHT22;8742;51.716;8.790;2023-08-06T10:25:04;22.80;99.90
17252;DHT22;8742;51.716;8.790;2023-08-06T10:27:33;22.70;99.90
17252;DHT22;8742;51.716;8.790;2023-08-06T10:30:20;22.50;99.90
17252;DHT22;8742;51.716;8.790;2023-08-06T10:32:48;22.40;99.90
17252;DHT22;8742;51.716;8.790;2023-08-06T10:35:28;22.30;99.90
17252;DHT22;8742;51.716;8.790;2023-08-06T11:00:38;23.00;99.90
17252;DHT22;8742;51.716;8.790;2023-08-06T11:03:05;23.10;99.90
17252;DHT22;8742;51.716;8.790;2023-08-06T11:05:33;23.20;99.90
17252;DHT22;8742;51.716;8.790;2023-08-06T11:07:59;23.20;99.90
17252;DHT22;8742;51.716;8.790;2023-08-06T11:10:26;23.40;99.90
17252;DHT22;8742;51.716;8.790;2023-08-06T11:12:53;23.40;99.90
17252;DHT22;8742;51.716;8.790;2023-08-06T11:15:20;23.40;99.90
17252;DHT22;8742;51.716;8.790;2023-08-06T11:17:51;23.40;99.90
17252;DHT22;8742;51.716;8.790;2023-08-06T11:20:20;23.40;99.90
17252;DHT22;8742;51.716;8.790;2023-08-06T11:22:48;23.20;99.90
17252;DHT22;8742;51.716;8.790;2023-08-06T11:25:14;23.10;99.90
17252;DHT22;8742;51.716;8.790;2023-08-06T11:27:41;23.00;99.90
17252;DHT22;8742;51.716;8.790;2023-08-06T11:30:11;22.90;99.90
17252;DHT22;8742;51.716;8.790;2023-08-06T11:32:47;22.70;99.90
17252;DHT22;8742;51.716;8.790;2023-08-06T11:35:16;22.60;99.90
17252;DHT22;8742;51.716;8.790;2023-08-06T11:37:44;22.30;99.90
17252;DHT22;8742;51.716;8.790;2023-08-06T11:40:13;22.00;99.90
17252;DHT22;8742;51.716;8.790;2023-08-06T11:42:41;21.70;99.90
17252;DHT22;8742;51.716;8.790;2023-08-06T11:45:09;21.60;99.90
17252;DHT22;8742;51.716;8.790;2023-08-06T11:47:38;21.50;99.90
17252;DHT22;8742;51.716;8.790;2023-08-06T11:50:06;21.50;99.90
17252;DHT22;8742;51.716;8.790;2023-08-06T11:52:34;21.50;99.90
17252;DHT22;8742;51.716;8.790;2023-08-06T11:55:06;21.40;99.90
17252;DHT22;8742;51.716;8.790;2023-08-06T11:57:36;21.30;99.90
17252;DHT22;8742;51.716;8.790;2023-08-06T12:00:07;21.30;99.90
17252;DHT22;8742;51.716;8.790;2023-08-06T12:02:34;21.20;99.90
17252;DHT22;8742;51.716;8.790;2023-08-06T12:05:04;21.20;99.90
17252;DHT22;8742;51.716;8.790;2023-08-06T12:07:36;21.30;99.90
17252;DHT22;8742;51.716;8.790;2023-08-06T12:10:04;21.30;99.90
17252;DHT22;8742;51.716;8.790;2023-08-06T12:12:31;21.40;99.90
17252;DHT22;8742;51.716;8.790;2023-08-06T12:14:58;21.50;99.90
17252;DHT22;8742;51.716;8.790;2023-08-06T12:17:25;21.70;99.90
17252;DHT22;8742;51.716;8.790;2023-08-06T12:19:55;21.80;99.90
17252;DHT22;8742;51.716;8.790;2023-08-06T12:22:22;21.90;99.90
17252;DHT22;8742;51.716;8.790;2023-08-06T12:24:50;21.90;99.90
17252;DHT22;8742;51.716;8.790;2023-08-06T12:27:17;22.00;99.90
17252;DHT22;8742;51.716;8.790;2023-08-06T12:29:45;22.10;99.90
17252;DHT22;8742;51.716;8.790;2023-08-06T12:32:12;22.20;99.90
17252;DHT22;8742;51.716;8.790;2023-08-06T12:34:40;22.30;99.90
17252;DHT22;8742;51.716;8.790;2023-08-06T12:37:07;22.30;99.90
17252;DHT22;8742;51.716;8.790;2023-08-06T12:39:34;22.40;99.90
17252;DHT22;8742;51.716;8.790;2023-08-06T12:42:03;22.60;99.90
17252;DHT22;8742;51.716;8.790;2023-08-06T12:44:30;22.70;99.90
17252;DHT22;8742;51.716;8.790;2023-08-06T12:46:57;22.90;99.90
17252;DHT22;8742;51.716;8.790;2023-08-06T12:49:25;23.10;99.90
17252;DHT22;8742;51.716;8.790;2023-08-06T12:51:53;23.30;99.90
17252;DHT22;8742;51.716;8.790;2023-08-06T12:54:20;23.50;99.90
17252;DHT22;8742;51.716;8.790;2023-08-06T12:56:47;23.70;99.90
17252;DHT22;8742;51.716;8.790;2023-08-06T12:59:16;23.90;99.90
17252;DHT22;8742;51.716;8.790;2023-08-06T13:01:44;24.20;99.90
17252;DHT22;8742;51.716;8.790;2023-08-06T13:04:11;25.00;99.90
17252;DHT22;8742;51.716;8.790;2023-08-06T13:06:38;26.00;99.90
17252;DHT22;8742;51.716;8.790;2023-08-06T13:09:05;26.80;99.90
17252;DHT22;8742;51.716;8.790;2023-08-06T13:11:33;27.40;99.90
17252;DHT22;8742;51.716;8.790;2023-08-06T13:14:04;27.70;99.90
17252;DHT22;8742;51.716;8.790;2023-08-06T13:16:33;27.90;99.90
17252;DHT22;8742;51.716;8.790;2023-08-06T13:19:00;28.20;99.90
17252;DHT22;8742;51.716;8.790;2023-08-06T13:21:33;28.30;99.90
17252;DHT22;8742;51.716;8.790;2023-08-06T13:24:00;28.40;99.90
17252;DHT22;8742;51.716;8.790;2023-08-06T13:26:28;28.40;99.90
17252;DHT22;8742;51.716;8.790;2023-08-06T13:28:56;28.60;99.90
17252;DHT22;8742;51.716;8.790;2023-08-06T13:31:23;29.00;99.90
17252;DHT22;8742;51.716;8.790;2023-08-06T13:33:54;29.60;99.90
17252;DHT22;8742;51.716;8.790;2023-08-06T13:36:23;30.30;99.90
17252;DHT22;8742;51.716;8.790;2023-08-06T13:38:50;30.80;99.90
17252;DHT22;8742;51.716;8.790;2023-08-06T13:41:17;30.70;99.90
17252;DHT22;8742;51.716;8.790;2023-08-06T13:43:44;30.30;99.90
17252;DHT22;8742;51.716;8.790;2023-08-06T13:46:11;29.80;99.90
17252;DHT22;8742;51.716;8.790;2023-08-06T13:48:41;29.50;99.90
17252;DHT22;8742;51.716;8.790;2023-08-06T13:51:10;29.00;99.90
17252;DHT22;8742;51.716;8.790;2023-08-06T13:53:37;28.40;99.90
17252;DHT22;8742;51.716;8.790;2023-08-06T13:56:04;27.90;99.90
17252;DHT22;8742;51.716;8.790;2023-08-06T13:58:31;27.30;99.90
17252;DHT22;8742;51.716;8.790;2023-08-06T14:00:58;26.80;99.90
17252;DHT22;8742;51.716;8.790;2023-08-06T14:03:25;26.30;99.90
17252;DHT22;8742;51.716;8.790;2023-08-06T14:05:53;25.90;99.90
17252;DHT22;8742;51.716;8.790;2023-08-06T14:08:23;25.40;99.90
17252;DHT22;8742;51.716;8.790;2023-08-06T14:10:50;25.00;99.90
17252;DHT22;8742;51.716;8.790;2023-08-06T14:13:17;24.50;99.90
17252;DHT22;8742;51.716;8.790;2023-08-06T14:15:44;24.10;99.90
17252;DHT22;8742;51.716;8.790;2023-08-06T14:18:12;23.60;99.90
17252;DHT22;8742;51.716;8.790;2023-08-06T14:20:39;23.10;99.90
17252;DHT22;8742;51.716;8.790;2023-08-06T14:23:06;22.70;99.90
17252;DHT22;8742;51.716;8.790;2023-08-06T14:25:34;22.40;99.90
17252;DHT22;8742;51.716;8.790;2023-08-06T14:28:01;22.00;99.90
17252;DHT22;8742;51.716;8.790;2023-08-06T14:30:28;21.70;99.90
17252;DHT22;8742;51.716;8.790;2023-08-06T14:32:55;21.40;99.90
17252;DHT22;8742;51.716;8.790;2023-08-06T14:35:22;21.10;99.90
17252;DHT22;8742;51.716;8.790;2023-08-06T14:38:05;20.70;99.90
17252;DHT22;8742;51.716;8.790;2023-08-06T14:40:39;20.40;99.90
17252;DHT22;8742;51.716;8.790;2023-08-06T14:43:06;20.20;99.90
17252;DHT22;8742;51.716;8.790;2023-08-06T14:45:33;19.90;99.90
17252;DHT22;8742;51.716;8.790;2023-08-06T14:48:00;19.60;99.90
17252;DHT22;8742;51.716;8.790;2023-08-06T14:50:27;19.30;99.90
17252;DHT22;8742;51.716;8.790;2023-08-06T14:52:54;19.00;99.90
17252;DHT22;8742;51.716;8.790;2023-08-06T14:55:25;18.70;99.90
17252;DHT22;8742;51.716;8.790;2023-08-06T14:57:53;18.40;99.90
17252;DHT22;8742;51.716;8.790;2023-08-06T15:00:20;18.20;99.90
17252;DHT22;8742;51.716;8.790;2023-08-06T15:02:47;18.00;99.90
17252;DHT22;8742;51.716;8.790;2023-08-06T15:05:26;17.70;99.90
17252;DHT22;8742;51.716;8.790;2023-08-06T15:07:55;17.60;99.90
17252;DHT22;8742;51.716;8.790;2023-08-06T15:10:22;17.50;99.90
17252;DHT22;8742;51.716;8.790;2023-08-06T15:12:50;17.30;99.90
17252;DHT22;8742;51.716;8.790;2023-08-06T15:15:24;17.20;99.90
17252;DHT22;8742;51.716;8.790;2023-08-06T15:17:53;17.10;99.90
17252;DHT22;8742;51.716;8.790;2023-08-06T15:20:20;16.90;99.90
17252;DHT22;8742;51.716;8.790;2023-08-06T15:22:50;16.90;99.90
17252;DHT22;8742;51.716;8.790;2023-08-06T15:25:18;16.80;99.90
17252;DHT22;8742;51.716;8.790;2023-08-06T15:27:57;16.70;99.90
17252;DHT22;8742;51.716;8.790;2023-08-06T15:30:49;16.70;99.90
17252;DHT22;8742;51.716;8.790;2023-08-06T15:33:17;16.60;99.90
17252;DHT22;8742;51.716;8.790;2023-08-06T15:35:44;16.60;99.90
17252;DHT22;8742;51.716;8.790;2023-08-06T15:38:15;16.60;99.90
17252;DHT22;8742;51.716;8.790;2023-08-06T15:40:43;16.60;99.90
17252;DHT22;8742;51.716;8.790;2023-08-06T15:43:10;16.60;99.90
17252;DHT22;8742;51.716;8.790;2023-08-06T15:48:55;16.70;99.90
17252;DHT22;8742;51.716;8.790;2023-08-06T16:01:50;16.80;99.90
17252;DHT22;8742;51.716;8.790;2023-08-06T16:08:10;16.80;99.90
17252;DHT22;8742;51.716;8.790;2023-08-06T16:34:42;16.70;99.90
17252;DHT22;8742;51.716;8.790;2023-08-06T16:37:09;16.50;99.90
17252;DHT22;8742;51.716;8.790;2023-08-06T16:39:36;16.50;99.90
17252;DHT22;8742;51.716;8.790;2023-08-06T16:42:04;16.40;99.90
17252;DHT22;8742;51.716;8.790;2023-08-06T16:44:32;16.40;99.90
17252;DHT22;8742;51.716;8.790;2023-08-06T16:46:59;16.40;99.90
17252;DHT22;8742;51.716;8.790;2023-08-06T16:49:26;16.30;99.90
17252;DHT22;8742;51.716;8.790;2023-08-06T16:51:54;16.30;99.90
17252;DHT22;8742;51.716;8.790;2023-08-06T16:54:21;16.20;99.90